Time;durP1;ratioP1;P1;durP2;ratioP2;P2;SDS_P1;SDS_P2;PMS_P1;PMS_P2;Temp;Humidity;BMP_temperature;BMP_pressure;BME280_temperature;BME280_humidity;BME280_pressure;Samples;Min_cycle;Max_cycle;Signal;HPM_P1;HPM_P2
2023/09/19 07:10:48;;;;;;;2.37;0.70;;;16.90;99.90;;;;;;4878725;29;20221;-70
2023/09/19 07:13:16;;;;;;;3.50;0.70;;;16.90;99.90;;;;;;4880900;29;20211;-70
2023/09/19 07:15:46;;;;;;;6.93;1.10;;;16.90;99.90;;;;;;4880832;29;20227;-70
2023/09/19 07:18:14;;;;;;;3.87;0.70;;;17.00;99.90;;;;;;4881014;29;20218;-70
2023/09/19 07:20:48;;;;;;;2.13;0.70;;;17.20;99.90;;;;;;4880883;29;20338;-70
2023/09/19 07:23:18;;;;;;;2.35;0.55;;;17.40;99.90;;;;;;4880923;29;20220;-70
2023/09/19 07:25:47;;;;;;;2.85;0.80;;;17.70;99.90;;;;;;4880951;29;20262;-70
2023/09/19 07:28:13;;;;;;;4.57;0.60;;;17.90;99.90;;;;;;4880947;29;20248;-71
2023/09/19 07:30:41;;;;;;;3.35;0.60;;;18.20;99.90;;;;;;4880842;29;20298;-70
2023/09/19 07:33:11;;;;;;;2.72;0.77;;;18.50;99.90;;;;;;4880852;29;20215;-71
2023/09/19 07:35:39;;;;;;;5.07;0.80;;;19.00;99.90;;;;;;4880731;29;20235;-71
2023/09/19 07:38:06;;;;;;;5.20;1.00;;;19.40;99.90;;;;;;4881016;29;20219;-70
2023/09/19 07:40:33;;;;;;;5.43;1.13;;;19.70;99.90;;;;;;4880730;29;20241;-70
2023/09/19 07:43:02;;;;;;;5.82;1.13;;;19.60;99.90;;;;;;4880800;29;20250;-71
2023/09/19 07:45:29;;;;;;;2.90;0.65;;;19.70;99.90;;;;;;4880781;29;20568;-71
2023/09/19 07:47:57;;;;;;;1.85;0.65;;;19.80;99.90;;;;;;4880751;29;20233;-71
2023/09/19 07:50:26;;;;;;;4.30;0.80;;;19.90;99.90;;;;;;4880416;29;20559;-71
2023/09/19 07:52:54;;;;;;;3.42;0.70;;;19.70;99.90;;;;;;4880676;29;20219;-70
2023/09/19 07:55:23;;;;;;;1.83;0.77;;;19.60;99.90;;;;;;4880446;29;20298;-71
2023/09/19 07:57:50;;;;;;;4.35;1.02;;;19.50;99.90;;;;;;4880473;29;20207;-71
2023/09/19 08:00:19;;;;;;;4.40;0.70;;;19.50;99.90;;;;;;4879774;29;20287;-71
2023/09/19 08:02:47;;;;;;;2.60;0.80;;;19.80;99.90;;;;;;4879959;29;20251;-71
2023/09/19 08:05:16;;;;;;;3.28;0.80;;;19.80;99.90;;;;;;4892042;29;20202;-71
2023/09/19 08:07:46;;;;;;;3.97;0.80;;;20.00;99.90;;;;;;4898767;29;20221;-71
2023/09/19 08:10:13;;;;;;;5.85;1.63;;;19.80;99.90;;;;;;4898426;29;20218;-71
2023/09/19 08:12:46;;;;;;;4.43;0.95;;;19.80;99.90;;;;;;4898316;29;20230;-71
2023/09/19 08:15:13;;;;;;;4.15;0.60;;;19.80;99.90;;;;;;4898700;29;20745;-71
2023/09/19 08:17:41;;;;;;;3.92;0.57;;;19.80;99.90;;;;;;4898813;29;20306;-71
2023/09/19 08:20:15;;;;;;;3.97;0.90;;;19.80;99.90;;;;;;4898805;29;20676;-71
2023/09/19 08:22:45;;;;;;;3.65;0.95;;;20.10;99.90;;;;;;4898854;29;20205;-71
2023/09/19 08:25:13;;;;;;;3.15;0.60;;;20.10;99.90;;;;;;4898336;29;20266;-71
2023/09/19 08:27:39;;;;;;;4.95;0.70;;;20.10;99.90;;;;;;4898281;29;20614;-71
2023/09/19 08:30:07;;;;;;;3.03;0.88;;;20.10;99.90;;;;;;4898636;29;20313;-71
2023/09/19 08:32:34;;;;;;;6.25;1.05;;;20.10;99.90;;;;;;4898762;29;20301;-71
2023/09/19 08:35:04;;;;;;;3.72;1.00;;;19.80;99.90;;;;;;4898853;29;20253;-71
2023/09/19 08:37:31;;;;;;;4.35;0.75;;;19.90;99.90;;;;;;4898594;29;20301;-71
2023/09/19 08:39:58;;;;;;;3.40;0.93;;;20.10;99.90;;;;;;4897882;29;20710;-71
2023/09/19 08:42:25;;;;;;;5.28;1.10;;;20.10;99.90;;;;;;4898552;29;20214;-71
2023/09/19 08:44:54;;;;;;;2.63;0.88;;;20.10;99.90;;;;;;4898287;29;20217;-71
2023/09/19 08:47:30;;;;;;;2.10;0.70;;;20.00;99.90;;;;;;4898143;29;20321;-71
2023/09/19 08:50:14;;;;;;;3.13;0.80;;;20.30;99.90;;;;;;4898157;29;20301;-71
2023/09/19 08:52:43;;;;;;;5.78;0.80;;;20.30;99.90;;;;;;4890572;29;20577;-72
2023/09/19 08:55:20;;;;;;;2.53;0.57;;;20.20;99.90;;;;;;4894669;29;20206;-72
2023/09/19 08:57:50;;;;;;;2.92;0.65;;;20.20;99.90;;;;;;4878020;29;20251;-71
2023/09/19 09:00:20;;;;;;;4.68;0.90;;;20.60;99.90;;;;;;4896519;29;20325;-72
2023/09/19 09:02:48;;;;;;;3.05;0.88;;;20.70;99.90;;;;;;4886650;29;20219;-72
2023/09/19 09:05:22;;;;;;;3.72;0.95;;;20.60;99.90;;;;;;4877757;29;20673;-72
2023/09/19 09:07:51;;;;;;;3.55;0.70;;;20.50;99.90;;;;;;4877391;29;20214;-72
2023/09/19 09:10:21;;;;;;;7.13;0.95;;;20.70;99.90;;;;;;4877794;29;20255;-73
2023/09/19 09:12:49;;;;;;;7.20;0.95;;;20.60;99.90;;;;;;4878075;29;20211;-72
2023/09/19 09:15:19;;;;;;;5.25;0.88;;;20.60;99.90;;;;;;4877924;29;20293;-72
2023/09/19 09:17:50;;;;;;;2.47;0.65;;;20.60;99.90;;;;;;4877838;29;20218;-70
2023/09/19 09:20:18;;;;;;;3.65;1.05;;;20.60;99.90;;;;;;4877947;29;20234;-72
2023/09/19 09:22:54;;;;;;;8.25;0.80;;;20.50;99.90;;;;;;4877376;29;20215;-72
2023/09/19 09:25:23;;;;;;;8.25;1.10;;;20.60;99.90;;;;;;4877827;29;20218;-73
2023/09/19 09:28:01;;;;;;;4.93;1.27;;;20.60;99.90;;;;;;4877797;29;20619;-72
2023/09/19 09:30:35;;;;;;;3.40;0.80;;;20.50;99.90;;;;;;4878246;29;20235;-71
2023/09/19 09:33:11;;;;;;;4.43;0.77;;;20.60;99.90;;;;;;4878210;29;20215;-70
2023/09/19 09:35:51;;;;;;;5.00;0.80;;;20.60;99.90;;;;;;4878644;29;20231;-71
2023/09/19 09:38:18;;;;;;;1.55;0.85;;;20.70;99.90;;;;;;4879138;29;20218;-72
2023/09/19 09:40:53;;;;;;;4.25;0.65;;;20.70;99.90;;;;;;4878556;29;20333;-75
2023/09/19 09:43:35;;;;;;;2.63;0.50;;;20.70;99.90;;;;;;4878938;29;20674;-74
2023/09/19 09:51:57;;;;;;;3.13;0.60;;;20.40;99.90;;;;;;4879307;29;20222;-73
2023/09/19 09:54:27;;;;;;;4.95;0.80;;;20.10;99.90;;;;;;4879056;29;20215;-74
2023/09/19 09:56:58;;;;;;;3.30;1.00;;;20.10;99.90;;;;;;4878740;29;20638;-73
2023/09/19 09:59:50;;;;;;;3.47;0.70;;;20.20;99.90;;;;;;4878776;29;20215;-73
2023/09/19 10:02:25;;;;;;;1.90;0.60;;;20.10;99.90;;;;;;4879139;29;20245;-73
2023/09/19 10:05:08;;;;;;;10.18;1.63;;;19.90;99.90;;;;;;4878972;29;20207;-73
2023/09/19 10:07:41;;;;;;;6.30;0.90;;;19.80;99.90;;;;;;4878706;29;20267;-72
2023/09/19 10:10:15;;;;;;;3.08;0.77;;;19.70;99.90;;;;;;4878803;29;20251;-73
2023/09/19 10:12:48;;;;;;;1.98;0.88;;;19.70;99.90;;;;;;4878885;29;20222;-73
2023/09/19 10:15:17;;;;;;;2.78;0.70;;;19.80;99.90;;;;;;4878608;29;20207;-73
2023/09/19 10:17:45;;;;;;;5.60;1.08;;;19.90;99.90;;;;;;4878826;29;20212;-72
2023/09/19 10:20:33;;;;;;;5.30;1.10;;;20.10;99.90;;;;;;4879366;29;20211;-72
2023/09/19 10:23:09;;;;;;;3.10;0.45;;;20.00;99.90;;;;;;4882125;29;20316;-72
2023/09/19 10:25:38;;;;;;;1.83;0.65;;;20.00;99.90;;;;;;4881608;29;20334;-72
2023/09/19 10:28:10;;;;;;;4.43;0.70;;;20.00;99.90;;;;;;4881818;29;20207;-73
2023/09/19 10:30:41;;;;;;;2.78;0.63;;;20.10;99.90;;;;;;4881421;29;20298;-72
2023/09/19 10:33:09;;;;;;;1.15;0.40;;;20.10;99.90;;;;;;4881755;29;20286;-73
2023/09/19 10:35:40;;;;;;;4.35;0.85;;;20.20;99.90;;;;;;4882056;29;20266;-73
2023/09/19 10:38:11;;;;;;;1.85;0.40;;;20.10;99.90;;;;;;4881990;29;20211;-73
2023/09/19 10:40:42;;;;;;;3.83;0.80;;;20.10;99.90;;;;;;4881580;29;20334;-72
2023/09/19 10:43:13;;;;;;;4.95;0.52;;;20.10;99.90;;;;;;4881964;29;20291;-72
2023/09/19 10:45:41;;;;;;;1.38;0.55;;;20.20;99.90;;;;;;4879034;29;20586;-73
2023/09/19 10:48:08;;;;;;;1.55;0.80;;;20.40;99.90;;;;;;4884375;29;20811;-72
2023/09/19 10:50:49;;;;;;;5.57;0.60;;;20.50;99.90;;;;;;4884472;29;20229;-72
2023/09/19 10:53:18;;;;;;;4.68;0.75;;;20.50;99.90;;;;;;4899116;29;20214;-73
2023/09/19 10:55:54;;;;;;;3.92;0.50;;;20.30;99.90;;;;;;4891120;29;20258;-72
2023/09/19 10:58:34;;;;;;;2.25;0.50;;;20.30;99.90;;;;;;4880266;29;20211;-72
2023/09/19 11:01:07;;;;;;;3.08;0.82;;;20.40;99.90;;;;;;4881310;29;20274;-70
2023/09/19 11:03:37;;;;;;;3.55;0.57;;;20.50;99.90;;;;;;4881268;29;20215;-72
2023/09/19 11:06:15;;;;;;;3.42;0.50;;;20.60;99.90;;;;;;4881246;29;20490;-72
2023/09/19 11:09:21;;;;;;;2.88;0.90;;;20.60;99.90;;;;;;4881570;29;20219;-70
2023/09/19 11:11:57;;;;;;;2.00;0.60;;;20.60;99.90;;;;;;4875198;29;20215;-70
2023/09/19 11:14:44;;;;;;;2.05;0.47;;;20.40;99.90;;;;;;4881199;29;20241;-71
2023/09/19 11:17:40;;;;;;;0.98;0.43;;;20.30;99.90;;;;;;4881060;29;20287;-70
2023/09/19 11:20:43;;;;;;;0.90;0.40;;;20.40;99.90;;;;;;4858941;29;20218;-71
2023/09/19 11:23:22;;;;;;;2.67;0.40;;;20.50;99.90;;;;;;4881048;29;20301;-70
2023/09/19 11:25:53;;;;;;;1.65;0.47;;;20.60;99.90;;;;;;4880855;29;20242;-70
2023/09/19 11:28:38;;;;;;;3.60;0.82;;;20.50;99.90;;;;;;4880960;29;20211;-73
2023/09/19 11:31:53;;;;;;;1.45;0.50;;;20.60;99.90;;;;;;4880453;29;20242;-73
2023/09/19 11:34:39;;;;;;;1.13;0.40;;;20.80;99.90;;;;;;4880989;29;20246;-72
2023/09/19 11:38:16;;;;;;;2.15;0.50;;;20.80;99.90;;;;;;4880661;29;20321;-73
2023/09/19 11:40:55;;;;;;;2.05;0.50;;;20.60;99.90;;;;;;4880704;29;20262;-71
2023/09/19 11:43:35;;;;;;;1.27;0.38;;;20.70;99.90;;;;;;4880683;29;20255;-73
2023/09/19 11:46:09;;;;;;;1.35;0.40;;;20.90;99.90;;;;;;4880912;29;20235;-73
2023/09/19 11:48:44;;;;;;;2.20;0.50;;;20.70;99.90;;;;;;4880628;29;20243;-73
2023/09/19 11:51:19;;;;;;;1.20;0.45;;;20.70;99.90;;;;;;4880458;29;20215;-69
2023/09/19 11:53:49;;;;;;;1.25;0.40;;;20.60;99.90;;;;;;4880170;29;20294;-70
2023/09/19 11:56:18;;;;;;;4.18;0.60;;;20.40;99.90;;;;;;4880265;29;20594;-69
2023/09/19 11:58:48;;;;;;;3.33;0.43;;;20.40;99.90;;;;;;4880522;29;20306;-71
2023/09/19 12:01:21;;;;;;;1.67;0.40;;;20.40;99.90;;;;;;4880191;29;20326;-70
2023/09/19 12:03:56;;;;;;;1.67;0.57;;;20.70;99.90;;;;;;4880273;29;20251;-72
2023/09/19 12:06:24;;;;;;;0.43;0.32;;;20.90;99.90;;;;;;4880479;29;20313;-69
2023/09/19 12:08:53;;;;;;;1.02;0.30;;;21.20;99.90;;;;;;4880197;29;20257;-71
2023/09/19 12:11:23;;;;;;;2.88;0.50;;;21.00;99.90;;;;;;4879796;29;20215;-69
2023/09/19 12:13:53;;;;;;;2.85;0.40;;;20.70;99.90;;;;;;4880220;29;20620;-72
2023/09/19 12:16:22;;;;;;;1.50;0.40;;;20.80;99.90;;;;;;4880194;29;20295;-71
2023/09/19 12:18:51;;;;;;;2.28;0.60;;;21.00;99.90;;;;;;4880168;29;20302;-69
2023/09/19 12:21:31;;;;;;;1.10;0.43;;;21.20;99.90;;;;;;4880225;29;20234;-68
2023/09/19 12:23:59;;;;;;;0.88;0.45;;;21.20;99.90;;;;;;4880223;29;20219;-71
2023/09/19 12:26:28;;;;;;;3.00;0.50;;;20.90;99.90;;;;;;4879794;29;20235;-69
2023/09/19 12:28:57;;;;;;;1.02;0.60;;;20.90;99.90;;;;;;4879896;29;20219;-70
2023/09/19 12:31:26;;;;;;;1.10;0.50;;;20.70;99.90;;;;;;4879873;29;20211;-72
2023/09/19 12:33:55;;;;;;;1.27;0.40;;;20.80;99.90;;;;;;4880194;29;20218;-69
2023/09/19 12:36:28;;;;;;;1.10;0.30;;;20.80;99.90;;;;;;4879975;29;20231;-70
2023/09/19 12:38:58;;;;;;;0.73;0.20;;;20.90;99.90;;;;;;4879845;29;20212;-69
2023/09/19 12:41:25;;;;;;;0.35;0.30;;;21.00;99.90;;;;;;4879727;29;20333;-69
2023/09/19 12:43:53;;;;;;;1.30;0.47;;;21.10;99.90;;;;;;4878789;29;20650;-70
2023/09/19 12:46:25;;;;;;;1.58;0.40;;;21.00;99.90;;;;;;4879971;29;20635;-69
2023/09/19 12:49:19;;;;;;;1.25;0.50;;;20.90;99.90;;;;;;4879672;29;20222;-71
2023/09/19 12:51:47;;;;;;;1.05;0.35;;;21.10;99.90;;;;;;4879776;29;20637;-69
2023/09/19 12:54:16;;;;;;;1.52;0.43;;;21.20;99.90;;;;;;4879436;29;20305;-69
2023/09/19 12:56:48;;;;;;;3.33;0.50;;;21.30;99.90;;;;;;4879491;29;20227;-70
2023/09/19 12:59:16;;;;;;;2.13;0.38;;;21.30;99.90;;;;;;4878784;29;20678;-70
2023/09/19 13:01:46;;;;;;;3.70;0.50;;;21.20;99.90;;;;;;4879174;29;20270;-70
2023/09/19 13:04:20;;;;;;;1.08;0.50;;;20.90;99.90;;;;;;4879215;29;20250;-71
2023/09/19 13:06:48;;;;;;;0.88;0.40;;;20.90;99.90;;;;;;4879772;29;20266;-69
2023/09/19 13:09:16;;;;;;;2.42;0.57;;;20.70;99.90;;;;;;4879522;29;20222;-69
2023/09/19 13:11:45;;;;;;;2.00;0.50;;;20.80;99.90;;;;;;4879412;29;20305;-72
2023/09/19 13:14:19;;;;;;;2.78;0.50;;;20.90;99.90;;;;;;4879089;29;20670;-69
2023/09/19 13:16:58;;;;;;;2.20;0.70;;;21.10;99.90;;;;;;4879253;29;20231;-69
2023/09/19 13:19:40;;;;;;;2.08;0.40;;;21.00;99.90;;;;;;4879273;29;20250;-70
2023/09/19 13:22:42;;;;;;;0.98;0.32;;;20.90;99.90;;;;;;4879143;29;20234;-69
2023/09/19 13:25:14;;;;;;;0.65;0.30;;;20.90;99.90;;;;;;4879067;29;20215;-69
2023/09/19 13:27:42;;;;;;;1.52;0.30;;;20.80;99.90;;;;;;4879400;29;20299;-69
2023/09/19 13:30:10;;;;;;;1.48;0.70;;;20.80;99.90;;;;;;4879083;29;20214;-70
2023/09/19 13:32:38;;;;;;;3.55;0.30;;;20.90;99.90;;;;;;4879217;29;20233;-73
2023/09/19 13:35:08;;;;;;;1.25;0.40;;;20.90;99.90;;;;;;4879030;29;20219;-70
2023/09/19 13:37:35;;;;;;;3.58;0.47;;;20.90;99.90;;;;;;4879116;29;20279;-71
2023/09/19 13:40:05;;;;;;;1.70;0.55;;;21.10;99.90;;;;;;4878772;29;20570;-69
2023/09/19 13:42:32;;;;;;;1.20;0.38;;;21.20;99.90;;;;;;4878841;29;20241;-72
2023/09/19 13:44:59;;;;;;;3.08;0.52;;;21.30;99.90;;;;;;4879198;29;20306;-72
2023/09/19 13:47:26;;;;;;;0.80;0.40;;;21.30;99.90;;;;;;4879018;29;20651;-71
2023/09/19 13:49:54;;;;;;;1.15;0.50;;;21.40;99.90;;;;;;4879182;29;20215;-73
2023/09/19 13:52:21;;;;;;;2.75;0.60;;;21.30;99.90;;;;;;4878971;29;20211;-69
2023/09/19 13:54:48;;;;;;;0.77;0.38;;;21.20;99.90;;;;;;4880980;29;20215;-70
2023/09/19 13:57:17;;;;;;;3.20;0.60;;;21.20;99.90;;;;;;4882529;29;20242;-70
2023/09/19 13:59:44;;;;;;;2.13;0.40;;;21.10;99.90;;;;;;4882618;29;20211;-70
2023/09/19 14:02:11;;;;;;;1.95;0.35;;;21.10;99.90;;;;;;4882341;29;20349;-72
2023/09/19 14:04:38;;;;;;;1.75;0.52;;;21.20;99.90;;;;;;4882511;29;20211;-73
2023/09/19 14:07:07;;;;;;;1.38;0.50;;;21.30;99.90;;;;;;4882440;29;20322;-70
2023/09/19 14:09:34;;;;;;;1.63;0.50;;;21.20;99.90;;;;;;4882320;29;20227;-70
2023/09/19 14:12:01;;;;;;;3.95;0.60;;;21.00;99.90;;;;;;4882385;29;20667;-70
2023/09/19 14:14:29;;;;;;;1.10;0.45;;;21.00;99.90;;;;;;4882180;29;20218;-71
2023/09/19 14:16:56;;;;;;;1.52;0.63;;;20.90;99.90;;;;;;4882311;29;20266;-70
2023/09/19 14:19:23;;;;;;;1.55;0.50;;;20.90;99.90;;;;;;4882421;29;20239;-72
2023/09/19 14:21:55;;;;;;;1.10;0.30;;;20.90;99.90;;;;;;4882078;29;20322;-71
2023/09/19 14:24:23;;;;;;;1.45;0.50;;;20.80;99.90;;;;;;4882404;29;20671;-73
2023/09/19 14:26:50;;;;;;;1.00;0.50;;;20.80;99.90;;;;;;4882302;29;20326;-70
2023/09/19 14:29:17;;;;;;;0.88;0.43;;;20.90;99.90;;;;;;4882240;29;20246;-73
2023/09/19 14:31:45;;;;;;;1.00;0.40;;;21.00;99.90;;;;;;4882244;29;20308;-72
2023/09/19 14:34:14;;;;;;;2.15;0.40;;;20.90;99.90;;;;;;4880504;29;20293;-75
2023/09/19 14:36:41;;;;;;;2.85;0.70;;;21.10;99.90;;;;;;4881718;29;20314;-73
2023/09/19 14:39:08;;;;;;;2.53;0.55;;;21.10;99.90;;;;;;4886358;29;20294;-72
2023/09/19 14:41:35;;;;;;;1.77;0.45;;;21.20;99.90;;;;;;4899980;29;20335;-73
2023/09/19 14:44:04;;;;;;;1.95;0.70;;;21.40;99.90;;;;;;4886243;29;20294;-73
2023/09/19 14:46:31;;;;;;;1.02;0.55;;;21.70;99.90;;;;;;4881481;29;20235;-72
2023/09/19 14:49:01;;;;;;;3.00;0.50;;;21.60;99.90;;;;;;4881345;29;20290;-73
2023/09/19 14:51:31;;;;;;;2.42;0.47;;;21.50;99.90;;;;;;4887644;29;20206;-71
2023/09/19 14:53:58;;;;;;;0.95;0.47;;;21.20;99.90;;;;;;4886953;29;20261;-72
2023/09/19 14:56:25;;;;;;;2.45;0.90;;;21.00;99.90;;;;;;4880823;29;20314;-73
2023/09/19 14:58:52;;;;;;;1.05;0.38;;;20.90;99.90;;;;;;4880886;29;20211;-72
2023/09/19 15:01:19;;;;;;;2.30;0.68;;;20.80;99.90;;;;;;4881113;29;20310;-72
2023/09/19 15:03:48;;;;;;;2.47;0.63;;;20.80;99.90;;;;;;4880825;29;20247;-73
2023/09/19 15:06:16;;;;;;;0.80;0.50;;;20.90;99.90;;;;;;4880538;29;20235;-72
2023/09/19 15:08:47;;;;;;;1.38;0.88;;;21.00;99.90;;;;;;4880813;29;20302;-72
2023/09/19 15:11:16;;;;;;;1.33;0.45;;;21.00;99.90;;;;;;4881132;29;20698;-72
2023/09/19 15:13:44;;;;;;;2.08;0.50;;;20.90;99.90;;;;;;4880640;29;20221;-72
2023/09/19 15:16:12;;;;;;;2.03;0.55;;;21.00;99.90;;;;;;4880865;29;20707;-73
2023/09/19 15:18:41;;;;;;;2.30;0.65;;;21.00;99.90;;;;;;4880520;29;20263;-72
2023/09/19 15:21:10;;;;;;;2.08;0.60;;;21.10;99.90;;;;;;4880738;29;20582;-72
2023/09/19 15:23:40;;;;;;;2.38;0.73;;;21.10;99.90;;;;;;4880050;29;20310;-71
2023/09/19 15:26:08;;;;;;;1.50;0.70;;;21.00;99.90;;;;;;4879917;29;20330;-72
2023/09/19 15:28:35;;;;;;;2.78;0.63;;;20.70;99.90;;;;;;4882756;29;20660;-71
2023/09/19 15:31:03;;;;;;;2.17;0.57;;;20.30;99.90;;;;;;4877721;29;20207;-71
2023/09/19 15:33:31;;;;;;;2.08;0.77;;;20.20;99.90;;;;;;4879208;29;20298;-73
2023/09/19 15:36:03;;;;;;;1.75;0.50;;;20.20;99.90;;;;;;4879014;29;20714;-73
2023/09/19 15:38:31;;;;;;;2.13;0.50;;;20.20;99.90;;;;;;4878997;29;20206;-70
2023/09/19 15:41:00;;;;;;;0.85;0.40;;;20.40;99.90;;;;;;4879523;29;20679;-74
2023/09/19 15:43:27;;;;;;;9.63;1.02;;;20.40;99.90;;;;;;4878992;29;20239;-73
2023/09/19 15:45:54;;;;;;;3.45;0.52;;;20.40;99.90;;;;;;4878774;29;20238;-76
2023/09/19 15:48:22;;;;;;;1.75;0.60;;;20.30;99.90;;;;;;4879247;29;20234;-77
2023/09/19 15:50:49;;;;;;;0.65;0.40;;;20.10;99.90;;;;;;4879001;29;20214;-86
2023/09/19 15:53:16;;;;;;;3.75;0.50;;;20.10;99.90;;;;;;4878574;29;20214;-73
2023/09/19 15:55:45;;;;;;;1.23;0.50;;;20.20;99.90;;;;;;4877769;29;20237;-73
2023/09/19 15:58:13;;;;;;;3.22;1.00;;;20.20;99.90;;;;;;4878017;29;20211;-73
2023/09/19 16:00:41;;;;;;;1.60;0.45;;;20.30;99.90;;;;;;4887419;29;20663;-73
2023/09/19 16:03:09;;;;;;;1.15;0.50;;;20.30;99.90;;;;;;4878617;29;20780;-74
2023/09/19 16:05:39;;;;;;;1.55;0.57;;;20.30;99.90;;;;;;4878939;29;20588;-73
2023/09/19 16:08:07;;;;;;;4.30;0.75;;;20.10;99.90;;;;;;4888699;29;20269;-74
2023/09/19 16:10:37;;;;;;;3.65;0.63;;;20.10;99.90;;;;;;4878461;29;20686;-74
2023/09/19 16:13:05;;;;;;;1.25;0.50;;;20.10;99.90;;;;;;4877473;29;20219;-72
2023/09/19 16:15:33;;;;;;;2.90;0.65;;;20.00;99.90;;;;;;4878091;29;20250;-70
2023/09/19 16:18:02;;;;;;;1.75;0.50;;;19.90;99.90;;;;;;4878459;29;20233;-73
2023/09/19 16:20:29;;;;;;;1.40;0.73;;;19.90;99.90;;;;;;4877465;29;20675;-79
2023/09/19 16:22:56;;;;;;;4.18;0.55;;;19.90;99.90;;;;;;4877975;29;20235;-72
2023/09/19 16:25:23;;;;;;;2.92;0.70;;;19.90;99.90;;;;;;4878726;29;20294;-72
2023/09/19 16:27:51;;;;;;;2.35;0.55;;;19.80;99.90;;;;;;4882923;29;20248;-75
2023/09/19 16:30:19;;;;;;;1.15;0.63;;;19.80;99.90;;;;;;4877700;29;20214;-73
2023/09/19 16:32:47;;;;;;;2.38;0.55;;;19.80;99.90;;;;;;4877702;29;20211;-72
2023/09/19 16:35:15;;;;;;;1.30;0.60;;;19.80;99.90;;;;;;4877931;29;20678;-75
2023/09/19 16:37:42;;;;;;;1.83;0.63;;;19.90;99.90;;;;;;4878806;29;20548;-76
2023/09/19 16:40:10;;;;;;;0.80;0.50;;;19.90;99.90;;;;;;4877784;29;20211;-73
2023/09/19 16:42:37;;;;;;;1.40;0.50;;;19.90;99.90;;;;;;4877952;29;20910;-74
2023/09/19 16:45:04;;;;;;;2.03;0.70;;;19.90;99.90;;;;;;4877631;29;20211;-71
2023/09/19 16:47:31;;;;;;;2.72;0.60;;;19.80;99.90;;;;;;4878326;29;20211;-72
2023/09/19 16:50:00;;;;;;;0.82;0.43;;;19.70;99.90;;;;;;4877536;29;20297;-73
2023/09/19 16:52:27;;;;;;;1.73;0.60;;;19.60;99.90;;;;;;4878361;29;20299;-80
2023/09/19 16:54:53;;;;;;;2.75;0.77;;;19.50;99.90;;;;;;4877318;29;20440;-73
2023/09/19 16:57:22;;;;;;;0.90;0.40;;;19.40;99.90;;;;;;4877389;29;20238;-76
2023/09/19 16:59:49;;;;;;;2.33;1.27;;;19.40;99.90;;;;;;4877584;29;20218;-75
2023/09/19 17:02:17;;;;;;;2.90;0.80;;;19.40;99.90;;;;;;4877551;29;20218;-77
2023/09/19 17:04:44;;;;;;;1.13;0.50;;;19.50;99.90;;;;;;4877451;29;20235;-76
2023/09/19 17:07:12;;;;;;;1.00;0.50;;;19.50;99.90;;;;;;4878370;29;20230;-84
2023/09/19 17:09:39;;;;;;;1.67;0.60;;;19.50;99.90;;;;;;4877473;29;20294;-73
2023/09/19 17:12:07;;;;;;;2.50;0.70;;;19.50;99.90;;;;;;4877720;29;20210;-75
2023/09/19 17:14:35;;;;;;;1.83;0.70;;;19.60;99.90;;;;;;4880260;29;20255;-76
2023/09/19 17:17:03;;;;;;;1.17;0.60;;;19.50;99.90;;;;;;4877670;29;20243;-79
2023/09/19 17:19:30;;;;;;;2.33;0.50;;;19.50;99.90;;;;;;4877592;29;20203;-75
2023/09/19 17:21:58;;;;;;;1.77;0.52;;;19.40;99.90;;;;;;4877093;29;20215;-73
2023/09/19 17:24:27;;;;;;;3.58;0.68;;;19.30;99.90;;;;;;4877131;29;20278;-74
2023/09/19 17:26:53;;;;;;;0.85;0.60;;;19.30;99.90;;;;;;4877776;29;20667;-73
2023/09/19 17:29:20;;;;;;;3.63;0.60;;;19.40;99.90;;;;;;4880309;29;20250;-73
2023/09/19 17:31:47;;;;;;;2.55;0.60;;;19.40;99.90;;;;;;4883116;29;20298;-73
2023/09/19 17:34:15;;;;;;;2.30;0.93;;;19.30;99.90;;;;;;4883027;29;20766;-73
2023/09/19 17:36:42;;;;;;;1.63;0.60;;;19.20;99.90;;;;;;4882844;29;20291;-74
2023/09/19 17:39:14;;;;;;;3.45;0.80;;;19.20;99.90;;;;;;4882855;29;20238;-73
2023/09/19 17:41:42;;;;;;;2.80;0.70;;;19.20;99.90;;;;;;4882474;29;20222;-73
2023/09/19 17:44:11;;;;;;;2.90;0.82;;;19.20;99.90;;;;;;4882386;29;20294;-73
2023/09/19 17:46:38;;;;;;;1.80;0.60;;;19.10;99.90;;;;;;4882818;29;20231;-74
2023/09/19 17:49:06;;;;;;;4.80;0.90;;;19.00;99.90;;;;;;4882573;29;20246;-73
2023/09/19 17:51:33;;;;;;;0.60;0.50;;;19.00;99.90;;;;;;4882735;29;20671;-74
2023/09/19 17:54:02;;;;;;;1.67;0.50;;;18.90;99.90;;;;;;4882600;29;20626;-74
2023/09/19 17:56:30;;;;;;;3.40;0.60;;;18.90;99.90;;;;;;4882310;29;20249;-73
2023/09/19 17:58:58;;;;;;;1.83;0.65;;;18.80;99.90;;;;;;4882483;29;20218;-74
2023/09/19 18:01:27;;;;;;;2.90;0.88;;;18.80;99.90;;;;;;4882409;29;20600;-73
2023/09/19 18:03:56;;;;;;;3.85;0.73;;;18.70;99.90;;;;;;4882495;29;20333;-72
2023/09/19 18:06:23;;;;;;;0.60;0.50;;;18.70;99.90;;;;;;4882239;29;20287;-73
2023/09/19 18:08:50;;;;;;;1.27;0.47;;;18.70;99.90;;;;;;4882183;29;20271;-72
2023/09/19 18:11:19;;;;;;;3.90;0.60;;;18.70;99.90;;;;;;4882424;29;20222;-72
2023/09/19 18:13:51;;;;;;;2.85;0.60;;;18.80;99.90;;;;;;4882148;29;20273;-72
2023/09/19 18:16:20;;;;;;;2.15;0.70;;;18.70;99.90;;;;;;4881884;29;20778;-73
2023/09/19 18:18:49;;;;;;;1.20;0.60;;;18.70;99.90;;;;;;4881792;29;20268;-72
2023/09/19 18:21:19;;;;;;;0.85;0.50;;;18.70;99.90;;;;;;4881999;29;20211;-73
2023/09/19 18:23:48;;;;;;;2.40;0.80;;;18.70;99.90;;;;;;4881977;29;20245;-71
2023/09/19 18:26:15;;;;;;;0.40;0.40;;;18.70;99.90;;;;;;4881930;29;20325;-73
2023/09/19 18:28:43;;;;;;;1.88;0.75;;;18.70;99.90;;;;;;4882001;29;20215;-72
2023/09/19 18:31:10;;;;;;;2.43;0.70;;;18.70;99.90;;;;;;4882176;29;20211;-72
2023/09/19 18:33:38;;;;;;;1.80;0.65;;;18.60;99.90;;;;;;4881817;29;20755;-72
2023/09/19 18:36:07;;;;;;;3.13;0.70;;;18.60;99.90;;;;;;4881660;29;20266;-72
2023/09/19 18:38:36;;;;;;;2.53;0.60;;;18.50;99.90;;;;;;4881974;29;20207;-72
2023/09/19 18:41:06;;;;;;;2.33;0.85;;;18.50;99.90;;;;;;4880428;29;20206;-73
2023/09/19 18:43:34;;;;;;;1.52;0.50;;;18.50;99.90;;;;;;4881854;29;20278;-72
2023/09/19 18:46:01;;;;;;;2.75;1.25;;;18.50;99.90;;;;;;4881535;29;20702;-72
2023/09/19 18:48:28;;;;;;;0.80;0.63;;;18.60;99.90;;;;;;4881581;29;20309;-72
2023/09/19 18:50:56;;;;;;;3.83;1.00;;;18.50;99.90;;;;;;4881542;29;20307;-73
2023/09/19 18:53:25;;;;;;;1.67;0.50;;;18.60;99.90;;;;;;4881540;29;20302;-73
2023/09/19 18:56:03;;;;;;;4.60;0.70;;;18.70;99.90;;;;;;4881404;29;20231;-72
2023/09/19 18:58:30;;;;;;;2.22;0.93;;;18.70;99.90;;;;;;4881314;29;20574;-72
2023/09/19 19:01:02;;;;;;;1.52;0.80;;;18.60;99.90;;;;;;4881235;29;20238;-72
2023/09/19 19:03:30;;;;;;;3.10;0.80;;;18.60;99.90;;;;;;4881073;29;20762;-73
2023/09/19 19:05:58;;;;;;;3.35;0.70;;;18.60;99.90;;;;;;4881610;29;20288;-74
2023/09/19 19:08:25;;;;;;;1.95;0.65;;;18.60;99.90;;;;;;4881188;29;20324;-72
2023/09/19 19:10:52;;;;;;;2.40;0.45;;;18.50;99.90;;;;;;4880972;29;20250;-73
2023/09/19 19:13:19;;;;;;;1.58;0.57;;;18.50;99.90;;;;;;4881191;29;20742;-74
2023/09/19 19:15:46;;;;;;;1.23;0.50;;;18.50;99.90;;;;;;4880922;29;20646;-73
2023/09/19 19:18:13;;;;;;;3.33;0.52;;;18.50;99.90;;;;;;4880979;29;20247;-74
2023/09/19 19:20:40;;;;;;;1.85;0.70;;;18.50;99.90;;;;;;4881145;29;20329;-74
2023/09/19 19:23:09;;;;;;;2.33;0.60;;;18.40;99.90;;;;;;4880507;29;20239;-72
2023/09/19 19:25:39;;;;;;;2.25;0.52;;;18.50;99.90;;;;;;4880535;29;20259;-72
2023/09/19 19:28:08;;;;;;;0.85;0.68;;;18.50;99.90;;;;;;4878190;29;20219;-72
2023/09/19 19:30:37;;;;;;;1.25;0.40;;;18.50;99.90;;;;;;4880566;29;20214;-72
2023/09/19 19:33:05;;;;;;;0.95;0.40;;;18.50;99.90;;;;;;4880499;29;20211;-73
2023/09/19 19:35:33;;;;;;;4.03;0.90;;;18.50;99.90;;;;;;4880161;29;20245;-74
2023/09/19 19:38:00;;;;;;;1.90;0.50;;;18.60;99.90;;;;;;4880657;29;20607;-73
2023/09/19 19:40:28;;;;;;;2.70;0.57;;;18.60;99.90;;;;;;4880295;29;20234;-73
2023/09/19 19:42:55;;;;;;;3.25;0.63;;;18.70;99.90;;;;;;4880620;29;20352;-73
2023/09/19 19:45:22;;;;;;;1.58;0.57;;;18.70;99.90;;;;;;4880590;29;20659;-73
2023/09/19 19:47:49;;;;;;;2.00;0.70;;;18.70;99.90;;;;;;4880610;29;20212;-73
2023/09/19 19:50:17;;;;;;;2.22;0.90;;;18.70;99.90;;;;;;4880750;29;20247;-73
2023/09/19 19:52:44;;;;;;;1.75;0.70;;;18.70;99.90;;;;;;4879925;29;20213;-73
2023/09/19 19:55:11;;;;;;;1.75;0.55;;;18.70;99.90;;;;;;4879511;29;20243;-74
2023/09/19 19:57:40;;;;;;;1.50;0.50;;;18.80;99.90;;;;;;4879938;29;20634;-73
2023/09/19 20:00:08;;;;;;;2.15;0.57;;;18.70;99.90;;;;;;4880232;29;20215;-73
2023/09/19 20:02:35;;;;;;;1.67;0.40;;;18.80;99.90;;;;;;4894806;29;20230;-73
2023/09/19 20:05:02;;;;;;;3.90;1.30;;;18.80;99.90;;;;;;4898691;29;20277;-74
2023/09/19 20:07:29;;;;;;;2.28;0.60;;;18.90;99.90;;;;;;4898209;29;20210;-73
2023/09/19 20:09:56;;;;;;;1.77;0.70;;;18.80;99.90;;;;;;4898071;29;20222;-73
2023/09/19 20:12:24;;;;;;;1.90;0.70;;;18.80;99.90;;;;;;4898513;29;20296;-73
2023/09/19 20:14:53;;;;;;;1.20;0.50;;;18.90;99.90;;;;;;4898628;29;20214;-73
2023/09/19 20:17:23;;;;;;;1.63;0.60;;;18.90;99.90;;;;;;4898090;29;20701;-73
2023/09/19 20:19:52;;;;;;;2.85;0.80;;;18.90;99.90;;;;;;4898040;29;20577;-73